createdAt,value
2019-03-03T00:00:30.256Z,56.74
2019-03-03T00:02:58.937Z,57.07
2019-03-03T00:05:27.606Z,56.91
2019-03-03T00:07:56.274Z,57.10
2019-03-03T00:10:24.955Z,57.27
2019-03-03T00:12:53.630Z,57.73
2019-03-03T00:15:22.309Z,58.01
2019-03-03T00:17:50.988Z,58.05
2019-03-03T00:20:19.659Z,58.78
2019-03-03T00:22:48.327Z,59.36
2019-03-03T00:25:17.390Z,59.67
2019-03-03T00:27:46.062Z,59.76
2019-03-03T00:30:17.243Z,59.76
2019-03-03T00:32:46.001Z,59.80
2019-03-03T00:35:15.172Z,60.19
2019-03-03T00:38:01.837Z,60.21
2019-03-03T00:40:47.356Z,60.37
2019-03-03T00:43:32.905Z,60.26
2019-03-03T00:46:05.778Z,60.45
2019-03-03T00:48:41.993Z,60.46
2019-03-03T00:51:12.223Z,60.92
2019-03-03T00:53:45.441Z,60.89
2019-03-03T00:56:21.786Z,61.08
2019-03-03T00:59:04.033Z,61.24
2019-03-03T01:01:34.273Z,61.15
2019-03-03T01:04:04.524Z,61.24
2019-03-03T01:06:37.761Z,61.41
2019-03-03T01:09:13.340Z,61.64
2019-03-03T01:11:55.306Z,62.10
2019-03-03T01:14:37.217Z,62.14
2019-03-03T01:17:16.598Z,61.99
2019-03-03T01:20:05.186Z,61.57
2019-03-03T01:22:51.871Z,61.04
2019-03-03T01:25:20.542Z,61.05
2019-03-03T01:27:49.217Z,60.61
2019-03-03T01:30:17.886Z,60.00
2019-03-03T01:32:46.561Z,59.99
2019-03-03T01:35:15.225Z,60.00
2019-03-03T01:37:43.913Z,60.19
2019-03-03T01:40:12.782Z,60.41
2019-03-03T01:42:41.486Z,59.81
2019-03-03T01:45:14.537Z,59.69
2019-03-03T01:47:43.207Z,59.36
2019-03-03T01:50:15.068Z,59.42
2019-03-03T01:52:43.752Z,59.17
2019-03-03T01:55:13.239Z,58.94
2019-03-03T01:57:41.894Z,59.31
2019-03-03T02:00:21.985Z,59.05
2019-03-03T02:02:51.266Z,58.68
2019-03-03T02:05:19.899Z,59.03
2019-03-03T02:07:48.611Z,59.29
2019-03-03T02:10:19.319Z,58.71
2019-03-03T02:12:48.015Z,58.46
2019-03-03T02:15:19.863Z,57.83
2019-03-03T02:17:48.539Z,58.03
2019-03-03T02:20:17.205Z,58.08
2019-03-03T02:22:45.878Z,57.89
2019-03-03T02:25:15.249Z,57.97
2019-03-03T02:27:44.030Z,58.77
2019-03-03T02:30:22.358Z,59.10
2019-03-03T02:32:51.031Z,59.04
2019-03-03T02:35:19.685Z,58.97
2019-03-03T02:37:48.360Z,59.17
2019-03-03T02:40:19.098Z,59.40
2019-03-03T02:42:47.863Z,59.32
2019-03-03T02:45:17.043Z,58.51
2019-03-03T02:47:45.734Z,58.03
2019-03-03T02:50:17.784Z,57.33
2019-03-03T02:52:46.856Z,57.55
2019-03-03T02:55:18.500Z,57.18
2019-03-03T02:57:47.112Z,57.03
2019-03-03T03:00:25.213Z,56.46
2019-03-03T03:02:55.445Z,56.36
2019-03-03T03:05:33.553Z,56.31
2019-03-03T03:08:09.961Z,56.06
2019-03-03T03:10:46.110Z,55.63
2019-03-03T03:13:32.907Z,55.49
2019-03-03T03:16:05.881Z,55.65
2019-03-03T03:18:36.128Z,55.44
2019-03-03T03:21:22.833Z,55.40
2019-03-03T03:23:59.097Z,55.38
2019-03-03T03:26:29.333Z,55.38
2019-03-03T03:29:05.329Z,55.37
2019-03-03T03:31:44.365Z,55.36
2019-03-03T03:34:14.599Z,55.15
2019-03-03T03:36:50.998Z,55.44
2019-03-03T03:39:33.415Z,55.12
2019-03-03T03:42:03.649Z,55.19
2019-03-03T03:44:36.978Z,55.12
2019-03-03T03:47:07.222Z,55.02
2019-03-03T03:49:46.550Z,55.07
2019-03-03T03:52:32.786Z,54.98
2019-03-03T03:55:03.026Z,54.91
2019-03-03T03:57:42.524Z,55.04
2019-03-03T04:00:18.588Z,55.14
2019-03-03T04:02:54.885Z,55.06
2019-03-03T04:05:25.106Z,54.66
2019-03-03T04:08:03.965Z,55.26
2019-03-03T04:10:37.035Z,56.10
2019-03-03T04:13:13.175Z,56.76
2019-03-03T04:15:49.532Z,57.45
2019-03-03T04:18:19.765Z,57.59
2019-03-03T04:20:52.941Z,57.59
2019-03-03T04:23:39.694Z,57.93
2019-03-03T04:26:09.918Z,57.69
2019-03-03T04:28:45.903Z,58.05
2019-03-03T04:31:16.134Z,58.36
2019-03-03T04:33:58.599Z,58.40
2019-03-03T04:39:27.087Z,58.80
2019-03-03T04:41:57.344Z,59.31
2019-03-03T04:44:30.638Z,59.09
2019-03-03T04:47:03.759Z,58.64
2019-03-03T04:49:46.207Z,59.20
2019-03-03T04:52:22.514Z,59.75
2019-03-03T04:55:01.900Z,60.89
2019-03-03T04:57:37.874Z,62.02
2019-03-03T05:00:26.294Z,63.44
2019-03-03T05:03:02.406Z,64.55
2019-03-03T05:05:32.644Z,65.42
2019-03-03T05:08:05.836Z,65.20
2019-03-03T05:10:52.469Z,65.03
2019-03-03T05:13:22.705Z,65.01
2019-03-03T05:15:52.971Z,65.28
2019-03-03T05:18:23.262Z,65.35
2019-03-03T05:20:51.912Z,65.09
2019-03-03T05:23:20.584Z,64.60
2019-03-03T05:25:49.255Z,65.00
2019-03-03T05:28:17.914Z,64.71
2019-03-03T05:30:46.574Z,65.44
2019-03-03T05:33:15.244Z,65.69
2019-03-03T05:35:43.906Z,65.43
2019-03-03T05:38:12.603Z,65.17
2019-03-03T05:40:41.253Z,65.05
2019-03-03T05:43:09.915Z,64.72
2019-03-03T05:45:38.569Z,64.63
2019-03-03T05:48:07.244Z,64.41
2019-03-03T05:50:35.918Z,64.00
2019-03-03T05:53:04.779Z,63.60
2019-03-03T05:55:33.416Z,63.45
2019-03-03T05:58:02.084Z,63.15
2019-03-03T06:00:30.990Z,63.51
2019-03-03T06:02:59.655Z,63.51
2019-03-03T06:05:28.336Z,62.86
2019-03-03T06:07:57.014Z,62.77
2019-03-03T06:10:25.685Z,62.80
2019-03-03T06:12:54.397Z,63.05
2019-03-03T06:15:23.066Z,63.19
2019-03-03T06:17:51.727Z,62.39
2019-03-03T06:20:20.410Z,62.12
2019-03-03T06:22:49.089Z,61.44
2019-03-03T06:25:17.744Z,60.31
2019-03-03T06:27:46.418Z,60.09
2019-03-03T06:30:15.788Z,60.09
2019-03-03T06:32:44.457Z,59.79
2019-03-03T06:35:13.420Z,59.78
2019-03-03T06:37:42.197Z,59.76
2019-03-03T06:40:11.586Z,59.42
2019-03-03T06:42:40.274Z,59.51
2019-03-03T06:45:13.792Z,58.93
2019-03-03T06:47:42.447Z,59.55
2019-03-03T06:50:12.605Z,59.09
2019-03-03T06:52:41.318Z,58.34
2019-03-03T06:55:10.260Z,58.13
2019-03-03T06:57:39.018Z,57.60
2019-03-03T07:00:10.666Z,58.11
2019-03-03T07:02:39.353Z,57.88
2019-03-03T07:05:09.614Z,57.45
2019-03-03T07:07:38.338Z,56.82
2019-03-03T07:10:09.697Z,56.83
2019-03-03T07:12:38.378Z,56.87
2019-03-03T07:15:10.060Z,56.52
2019-03-03T07:17:38.728Z,55.57
2019-03-03T07:20:09.698Z,55.29
2019-03-03T07:22:38.368Z,55.35
2019-03-03T07:25:17.265Z,55.32
2019-03-03T07:27:45.944Z,55.05
2019-03-03T07:30:15.713Z,55.15
2019-03-03T07:32:45.958Z,55.00
2019-03-03T07:35:14.637Z,55.04
2019-03-03T07:37:43.344Z,54.81
2019-03-03T07:40:12.002Z,55.18
2019-03-03T07:42:40.668Z,55.78
2019-03-03T07:45:12.112Z,55.78
2019-03-03T07:47:40.791Z,56.53
2019-03-03T07:50:09.468Z,56.91
2019-03-03T07:52:38.141Z,56.48
2019-03-03T07:55:09.021Z,56.61
2019-03-03T07:57:37.788Z,56.16
2019-03-03T08:00:11.483Z,55.93
2019-03-03T08:02:40.151Z,55.55
2019-03-03T08:05:09.924Z,55.77
2019-03-03T08:07:38.604Z,56.03
2019-03-03T08:10:17.438Z,56.32
2019-03-03T08:12:46.123Z,56.92
2019-03-03T08:15:19.009Z,57.08
2019-03-03T08:17:47.671Z,57.30
2019-03-03T08:20:16.432Z,56.74
2019-03-03T08:22:45.122Z,57.38
2019-03-03T08:25:14.116Z,56.65
2019-03-03T08:27:42.789Z,56.54
2019-03-03T08:30:13.618Z,56.52
2019-03-03T08:32:42.308Z,56.39
2019-03-03T08:35:13.821Z,55.78
2019-03-03T08:37:42.555Z,55.85
2019-03-03T08:40:11.648Z,55.47
2019-03-03T08:42:56.957Z,55.00
2019-03-03T08:45:27.304Z,54.69
2019-03-03T08:48:03.638Z,54.82
2019-03-03T08:50:33.854Z,53.96
2019-03-03T08:53:06.886Z,54.54
2019-03-03T08:55:42.881Z,54.06
2019-03-03T08:58:28.107Z,52.99
2019-03-03T09:00:58.337Z,51.71
2019-03-03T09:03:44.845Z,51.44
2019-03-03T09:06:31.289Z,51.12
2019-03-03T09:09:10.226Z,50.20
2019-03-03T09:11:40.475Z,50.20
2019-03-03T09:14:25.927Z,51.08
2019-03-03T09:16:56.163Z,51.23
2019-03-03T09:19:26.414Z,50.99
2019-03-03T09:21:56.639Z,50.13
2019-03-03T09:24:26.886Z,49.33
2019-03-03T09:27:09.323Z,48.71
2019-03-03T09:29:57.565Z,48.98
2019-03-03T09:32:39.511Z,49.69
2019-03-03T09:35:18.719Z,50.11
2019-03-03T09:37:48.978Z,49.32
2019-03-03T09:40:24.846Z,49.85
2019-03-03T09:42:57.958Z,50.09
2019-03-03T09:45:33.966Z,49.84
2019-03-03T09:48:06.960Z,48.37
2019-03-03T09:50:43.285Z,47.24
2019-03-03T09:53:25.437Z,46.86
2019-03-03T09:56:11.984Z,46.00
2019-03-03T09:58:58.240Z,44.39
2019-03-03T10:01:31.035Z,43.85
2019-03-03T10:04:17.392Z,43.15
2019-03-03T10:07:04.232Z,43.26
2019-03-03T10:09:52.478Z,42.96
2019-03-03T10:12:38.947Z,41.99
2019-03-03T10:15:14.493Z,40.95
2019-03-03T10:17:51.004Z,39.92
2019-03-03T10:20:27.538Z,39.41
2019-03-03T10:23:14.415Z,39.84
2019-03-03T10:25:59.707Z,38.69
2019-03-03T10:28:38.650Z,41.37
2019-03-03T10:31:14.784Z,40.35
2019-03-03T10:34:01.184Z,40.18
2019-03-03T10:36:37.451Z,40.77
2019-03-03T10:39:10.138Z,40.33
2019-03-03T10:41:49.283Z,39.56
2019-03-03T10:44:34.388Z,39.62
2019-03-03T10:47:07.210Z,38.17
2019-03-03T10:49:40.248Z,36.22
2019-03-03T10:52:10.508Z,36.66
2019-03-03T10:54:40.777Z,36.68
2019-03-03T10:57:17.068Z,36.18
2019-03-03T11:00:03.478Z,36.09
2019-03-03T11:02:33.815Z,37.88
2019-03-03T11:05:19.419Z,38.11
2019-03-03T11:07:52.645Z,38.93
2019-03-03T11:10:25.630Z,39.73
2019-03-03T11:13:04.914Z,39.86
2019-03-03T11:15:35.161Z,40.69
2019-03-03T11:18:08.263Z,41.32
2019-03-03T11:20:47.641Z,41.98
2019-03-03T11:23:34.245Z,42.60
2019-03-03T11:26:07.258Z,42.41
2019-03-03T11:28:37.495Z,42.16
2019-03-03T11:31:16.754Z,41.99
2019-03-03T11:33:50.104Z,42.65
2019-03-03T11:36:23.496Z,42.95
2019-03-03T11:38:56.803Z,42.91
2019-03-03T11:41:39.329Z,42.38
2019-03-03T11:44:12.567Z,42.19
2019-03-03T11:46:45.728Z,41.83
2019-03-03T11:49:16.046Z,41.73
2019-03-03T11:51:49.133Z,40.42
2019-03-03T11:54:19.363Z,41.11
2019-03-03T11:56:49.601Z,41.63
2019-03-03T11:59:25.974Z,40.93
2019-03-03T12:01:59.304Z,40.10
2019-03-03T12:04:29.644Z,39.30
2019-03-03T12:07:02.615Z,39.13
2019-03-03T12:09:35.605Z,39.14
2019-03-03T12:12:05.950Z,39.87
2019-03-03T12:14:36.200Z,41.80
2019-03-03T12:17:06.524Z,42.35
2019-03-03T12:19:52.038Z,42.32
2019-03-03T12:22:22.329Z,41.97
2019-03-03T12:25:04.466Z,42.00
2019-03-03T12:27:51.108Z,42.36
2019-03-03T12:30:21.402Z,42.43
2019-03-03T12:33:03.882Z,42.22
2019-03-03T12:35:42.898Z,42.83
2019-03-03T12:38:29.307Z,43.21
2019-03-03T12:41:15.879Z,43.52
2019-03-03T12:43:46.125Z,42.96
2019-03-03T12:46:16.415Z,42.12
2019-03-03T12:48:46.654Z,40.37
2019-03-03T12:51:16.938Z,40.21
2019-03-03T12:53:53.165Z,39.27
2019-03-03T12:56:32.204Z,38.26
2019-03-03T12:59:11.477Z,37.74
2019-03-03T13:01:57.964Z,36.63
2019-03-03T13:04:31.196Z,33.35
2019-03-03T13:07:07.412Z,29.61
2019-03-03T13:09:37.662Z,27.29
2019-03-03T13:12:07.903Z,25.00
2019-03-03T13:14:43.874Z,23.78
2019-03-03T13:17:14.112Z,24.64
2019-03-03T13:19:44.346Z,23.36
2019-03-03T13:22:29.898Z,22.89
2019-03-03T13:25:09.050Z,24.30
2019-03-03T13:27:45.304Z,25.82
2019-03-03T13:30:25.063Z,25.90
2019-03-03T13:32:58.542Z,26.73
2019-03-03T13:35:31.724Z,28.04
2019-03-03T13:38:14.116Z,27.44
2019-03-03T13:41:00.652Z,25.84
2019-03-03T13:43:29.330Z,22.32
2019-03-03T13:45:58.118Z,24.28
2019-03-03T13:48:26.791Z,25.67
2019-03-03T13:50:55.459Z,26.20
2019-03-03T13:53:24.160Z,24.53
2019-03-03T13:55:52.833Z,27.23
2019-03-03T13:58:21.498Z,28.67
2019-03-03T14:00:50.159Z,28.88
2019-03-03T14:03:18.877Z,30.84
2019-03-03T14:05:47.558Z,31.57
2019-03-03T14:08:16.223Z,31.71
2019-03-03T14:10:44.893Z,31.95
2019-03-03T14:13:13.561Z,33.04
2019-03-03T14:15:42.226Z,33.39
2019-03-03T14:18:10.910Z,34.68
2019-03-03T14:20:39.559Z,34.08
2019-03-03T14:23:08.330Z,33.65
2019-03-03T14:25:37.000Z,34.03
2019-03-03T14:28:05.786Z,34.23
2019-03-03T14:30:34.491Z,34.42
2019-03-03T14:33:03.156Z,34.41
2019-03-03T14:35:31.873Z,34.27
2019-03-03T14:38:00.566Z,34.66
2019-03-03T14:40:29.222Z,34.58
2019-03-03T14:42:57.915Z,34.31
2019-03-03T14:45:27.192Z,34.86
2019-03-03T14:47:55.856Z,34.86
2019-03-03T14:50:24.740Z,34.77
2019-03-03T14:52:55.216Z,35.26
2019-03-03T14:55:24.034Z,35.35
2019-03-03T14:57:52.693Z,35.46
2019-03-03T15:00:24.370Z,35.96
2019-03-03T15:02:54.805Z,36.10
2019-03-03T15:05:23.458Z,36.26
2019-03-03T15:07:52.127Z,36.90
2019-03-03T15:10:21.094Z,36.56
2019-03-03T15:12:49.756Z,36.52
2019-03-03T15:15:21.282Z,36.83
2019-03-03T15:17:49.927Z,36.69
2019-03-03T15:20:18.695Z,36.78
2019-03-03T15:22:47.355Z,37.01
2019-03-03T15:25:16.425Z,36.87
2019-03-03T15:27:45.199Z,37.39
2019-03-03T15:30:16.771Z,37.46
2019-03-03T15:32:45.531Z,37.78
2019-03-03T15:35:14.300Z,38.11
2019-03-03T15:37:42.979Z,38.11
2019-03-03T15:40:28.807Z,38.25
2019-03-03T15:42:57.494Z,38.18
2019-03-03T15:45:29.872Z,38.61
2019-03-03T15:47:58.526Z,38.59
2019-03-03T15:50:27.377Z,38.67
2019-03-03T15:52:56.037Z,39.08
2019-03-03T15:55:29.380Z,39.28
2019-03-03T15:57:58.041Z,39.72
2019-03-03T16:00:35.662Z,39.80
2019-03-03T16:03:04.671Z,40.27
2019-03-03T16:05:33.332Z,40.46
2019-03-03T16:08:02.158Z,40.87
2019-03-03T16:10:30.843Z,40.82
2019-03-03T16:12:59.507Z,40.97
2019-03-03T16:15:28.274Z,41.33
2019-03-03T16:17:56.947Z,41.61
2019-03-03T16:20:25.711Z,41.91
2019-03-03T16:22:54.380Z,41.86
2019-03-03T16:25:24.044Z,41.67
2019-03-03T16:27:53.015Z,41.94
2019-03-03T16:30:23.655Z,41.99
2019-03-03T16:32:52.335Z,42.11
2019-03-03T16:35:21.019Z,42.46
2019-03-03T16:37:49.721Z,42.39
2019-03-03T16:40:22.579Z,42.60
2019-03-03T16:42:51.284Z,42.51
2019-03-03T16:45:20.075Z,42.30
2019-03-03T16:47:48.866Z,42.47
2019-03-03T16:50:19.966Z,42.72
2019-03-03T16:52:49.132Z,43.02
2019-03-03T16:55:18.996Z,42.98
2019-03-03T16:57:47.650Z,43.21
2019-03-03T17:00:24.439Z,43.31
2019-03-03T17:02:53.187Z,43.28
2019-03-03T17:05:24.783Z,43.53
2019-03-03T17:07:53.451Z,43.56
2019-03-03T17:10:22.121Z,43.77
2019-03-03T17:12:50.939Z,43.61
2019-03-03T17:15:24.353Z,43.65
2019-03-03T17:17:53.009Z,43.85
2019-03-03T17:20:21.666Z,43.97
2019-03-03T17:22:50.334Z,43.95
2019-03-03T17:25:21.463Z,43.76
2019-03-03T17:27:50.136Z,43.79
2019-03-03T17:30:28.002Z,44.14
2019-03-03T17:32:56.864Z,44.14
2019-03-03T17:35:25.623Z,44.51
2019-03-03T17:37:56.542Z,44.39
2019-03-03T17:40:29.155Z,44.81
2019-03-03T17:42:57.828Z,44.72
2019-03-03T17:45:26.710Z,44.71
2019-03-03T17:47:55.358Z,45.09
2019-03-03T17:50:26.943Z,44.87
2019-03-03T17:52:55.609Z,45.19
2019-03-03T17:55:24.393Z,45.24
2019-03-03T17:57:53.154Z,45.60
2019-03-03T18:00:33.691Z,45.88
2019-03-03T18:03:02.346Z,45.79
2019-03-03T18:05:31.011Z,45.99
2019-03-03T18:07:59.722Z,46.11
2019-03-03T18:10:28.421Z,46.08
2019-03-03T18:12:57.134Z,46.02
2019-03-03T18:15:25.757Z,46.41
2019-03-03T18:17:54.443Z,46.10
2019-03-03T18:20:23.123Z,46.11
2019-03-03T18:22:51.954Z,46.16
2019-03-03T18:25:21.617Z,46.35
2019-03-03T18:27:50.318Z,46.49
2019-03-03T18:30:29.190Z,46.45
2019-03-03T18:32:57.854Z,46.74
2019-03-03T18:35:26.518Z,47.06
2019-03-03T18:37:55.178Z,47.45
2019-03-03T18:40:24.957Z,47.40
2019-03-03T18:42:54.154Z,47.47
2019-03-03T18:45:23.634Z,47.46
2019-03-03T18:47:52.401Z,47.54
2019-03-03T18:50:26.426Z,47.75
2019-03-03T18:52:55.095Z,47.93
2019-03-03T18:55:23.802Z,48.16
2019-03-03T18:57:52.558Z,48.41
2019-03-03T19:00:23.774Z,48.57
2019-03-03T19:02:52.532Z,48.97
2019-03-03T19:05:21.201Z,49.23
2019-03-03T19:07:49.864Z,49.79
2019-03-03T19:10:27.026Z,50.09
2019-03-03T19:12:55.683Z,50.36
2019-03-03T19:15:24.446Z,50.45
2019-03-03T19:17:53.120Z,50.55
2019-03-03T19:20:22.397Z,50.81
2019-03-03T19:22:51.510Z,51.17
2019-03-03T19:25:20.368Z,51.30
2019-03-03T19:27:49.037Z,51.51
2019-03-03T19:30:23.160Z,51.60
2019-03-03T19:32:58.052Z,51.76
2019-03-03T19:35:26.759Z,51.87
2019-03-03T19:37:55.434Z,51.92
2019-03-03T19:40:24.503Z,51.94
2019-03-03T19:42:53.197Z,52.00
2019-03-03T19:45:27.944Z,52.14
2019-03-03T19:47:56.814Z,52.13
2019-03-03T19:50:25.558Z,52.05
2019-03-03T19:52:54.329Z,51.94
2019-03-03T19:55:23.331Z,52.00
2019-03-03T19:57:52.032Z,51.88
2019-03-03T20:00:35.633Z,51.68
2019-03-03T20:02:59.397Z,51.72
2019-03-03T20:05:28.066Z,51.65
2019-03-03T20:07:56.739Z,51.52
2019-03-03T20:10:25.513Z,51.62
2019-03-03T20:12:54.183Z,51.63
2019-03-03T20:15:23.346Z,51.79
2019-03-03T20:17:52.029Z,51.73
2019-03-03T20:20:21.804Z,51.91
2019-03-03T20:22:50.562Z,51.99
2019-03-03T20:25:19.327Z,52.14
2019-03-03T20:27:48.112Z,52.12
2019-03-03T20:30:19.282Z,52.09
2019-03-03T20:32:48.113Z,52.05
2019-03-03T20:35:16.904Z,52.18
2019-03-03T20:37:46.674Z,52.33
2019-03-03T20:40:20.265Z,52.38
2019-03-03T20:42:48.951Z,52.79
2019-03-03T20:45:20.648Z,52.92
2019-03-03T20:47:49.286Z,53.00
2019-03-03T20:50:19.659Z,53.07
2019-03-03T20:52:49.034Z,53.03
2019-03-03T20:55:25.598Z,52.86
2019-03-03T20:57:54.278Z,53.03
2019-03-03T21:00:25.418Z,53.04
2019-03-03T21:02:54.145Z,53.33
2019-03-03T21:05:22.822Z,53.30
2019-03-03T21:07:52.267Z,53.09
2019-03-03T21:10:32.116Z,52.98
2019-03-03T21:13:00.980Z,52.87
2019-03-03T21:15:29.642Z,52.67
2019-03-03T21:17:58.311Z,52.62
2019-03-03T21:20:27.149Z,52.26
2019-03-03T21:22:55.886Z,52.10
2019-03-03T21:25:24.493Z,52.03
2019-03-03T21:27:53.166Z,52.25
2019-03-03T21:30:23.351Z,51.96
2019-03-03T21:32:52.520Z,52.58
2019-03-03T21:35:21.773Z,52.32
2019-03-03T21:37:50.545Z,52.58
2019-03-03T21:40:23.765Z,53.03
2019-03-03T21:42:52.525Z,53.34
2019-03-03T21:45:28.222Z,53.21
2019-03-03T21:47:57.266Z,53.33
2019-03-03T21:50:31.039Z,53.30
2019-03-03T21:52:59.709Z,53.30
2019-03-03T21:55:28.470Z,53.39
2019-03-03T21:57:57.152Z,53.44
2019-03-03T22:00:31.129Z,53.61
2019-03-03T22:02:59.823Z,53.26
2019-03-03T22:05:28.598Z,53.75
2019-03-03T22:07:57.302Z,54.99
2019-03-03T22:10:33.009Z,55.40
2019-03-03T22:13:03.381Z,56.28
2019-03-03T22:15:32.062Z,56.71
2019-03-03T22:18:00.733Z,57.14
2019-03-03T22:20:29.494Z,57.40
2019-03-03T22:22:58.166Z,57.23
2019-03-03T22:25:26.847Z,57.19
2019-03-03T22:27:55.531Z,57.61
2019-03-03T22:30:24.241Z,57.75
2019-03-03T22:32:52.960Z,57.92
2019-03-03T22:35:21.629Z,57.90
2019-03-03T22:37:51.159Z,57.72
2019-03-03T22:40:22.771Z,57.96
2019-03-03T22:42:51.497Z,58.10
2019-03-03T22:45:20.564Z,58.40
2019-03-03T22:47:49.275Z,58.06
2019-03-03T22:50:19.247Z,58.40
2019-03-03T22:52:47.928Z,58.36
2019-03-03T22:55:18.602Z,58.30
2019-03-03T22:57:47.268Z,58.03
2019-03-03T23:00:44.678Z,58.17
2019-03-03T23:03:16.858Z,58.27
2019-03-03T23:05:54.065Z,58.86
2019-03-03T23:08:28.282Z,58.74
2019-03-03T23:11:05.445Z,58.83
2019-03-03T23:13:37.023Z,58.67
2019-03-03T23:16:14.492Z,59.16
2019-03-03T23:19:08.719Z,59.56
2019-03-03T23:21:55.028Z,59.17
2019-03-03T23:24:26.663Z,59.68
2019-03-03T23:26:55.337Z,60.06
2019-03-03T23:29:24.014Z,60.63
2019-03-03T23:31:52.679Z,61.21
2019-03-03T23:34:21.356Z,61.21
2019-03-03T23:36:50.129Z,61.36
2019-03-03T23:39:18.844Z,61.25
2019-03-03T23:41:47.523Z,61.88
2019-03-03T23:44:17.193Z,62.30
2019-03-03T23:46:45.899Z,62.96
2019-03-03T23:49:15.336Z,63.38
2019-03-03T23:51:44.016Z,63.48
2019-03-03T23:54:12.682Z,63.59
2019-03-03T23:56:41.395Z,63.71
2019-03-03T23:59:10.106Z,63.57
